WetterOnline ( https://www.wetteronline.de )

Wetter aktuell Überherrn

Aktuelles Wetter: Berus (367m)

6-stündlich | Neueste Meldungen
Ortszeit Temperatur Wetter
Do, 02.02. 13:00 5.9° C bewölkt
Do, 02.02. 7:00 4.6° C bedeckt
Do, 02.02. 1:00 4.5° C bewölkt
Mi, 01.02. 19:00 4.7° C wolkig
Mi, 01.02. 13:00 4.8° C bewölkt
Mi, 01.02. 7:00 3.8° C bedeckt
Mi, 01.02. 1:00 3.5° C Nebel
Di, 31.01. 19:00 3.3° C Sprühregen
Ortszeit Temperatur Wetter
Do, 02.02. 13:00 5.9° C bewölkt
Do, 02.02. 12:40 5.8° C bedeckt
Do, 02.02. 12:30 5.7° C bewölkt
Do, 02.02. 12:20 5.7° C bewölkt
Do, 02.02. 12:10 5.5° C bewölkt
Do, 02.02. 12:00 5.3° C bewölkt
Do, 02.02. 11:50 5.3° C bewölkt
Do, 02.02. 11:30 5.3° C bewölkt
Do, 02.02. 11:00 5.2° C bewölkt
Do, 02.02. 10:30 4.9° C bedeckt
Do, 02.02. 10:00 4.7° C Sprühregen
Ortszeit Relative Feuchte Sichtweite
Do, 02.02. 13:00 86% 30 km
Do, 02.02. 7:00 93% 19 km
Do, 02.02. 1:00 92% 20 km
Mi, 01.02. 19:00 80% 30 km
Mi, 01.02. 13:00 82% 26 km
Mi, 01.02. 7:00 97% 14 km
Mi, 01.02. 1:00 100% 0.4 km
Di, 31.01. 19:00 100% 1.5 km
Ortszeit Relative Feuchte Sichtweite
Do, 02.02. 13:00 86% 30 km
Do, 02.02. 12:40 88% -
Do, 02.02. 12:30 88% 30 km
Do, 02.02. 12:20 88% -
Do, 02.02. 12:10 89% -
Do, 02.02. 12:00 89% 27 km
Do, 02.02. 11:50 89% -
Do, 02.02. 11:30 90% 25 km
Do, 02.02. 11:00 93% 22 km
Do, 02.02. 10:30 95% 20 km
Do, 02.02. 10:00 96% 15 km
Ortszeit Niederschlagsmenge Niederschlagsart
Do, 02.02. 13:00 0.1 l/m2 in 6 Std. Regen
Do, 02.02. 7:00 0.1 l/m2 in 12 Std. Regen
Do, 02.02. 1:00 0.1 l/m2 in 6 Std. Regen
Mi, 01.02. 19:00 0.1 l/m2 in 12 Std. -
Mi, 01.02. 13:00 0.1 l/m2 in 6 Std. Regen
Mi, 01.02. 7:00 1 l/m2 in 12 Std. Regen
Mi, 01.02. 1:00 1 l/m2 in 6 Std. Regen
Di, 31.01. 19:00 0.3 l/m2 in 12 Std. Regen
Ortszeit Niederschlagsmenge Niederschlagsart
Do, 02.02. 13:00 0.0 l/m2 in 1 Std. Regen
Do, 02.02. 12:40 keine Meldung -
Do, 02.02. 12:30 0.0 l/m2 in 30 Min -
Do, 02.02. 12:20 keine Meldung -
Do, 02.02. 12:10 keine Meldung -
Do, 02.02. 12:00 0.0 l/m2 in 1 Std. -
Do, 02.02. 11:50 keine Meldung -
Do, 02.02. 11:30 0.0 l/m2 in 30 Min -
Do, 02.02. 11:00 <0.05 l/m2 in 1 Std. Sprühregen
Do, 02.02. 10:30 <0.05 l/m2 in 30 Min Schnee
Do, 02.02. 10:00 <0.05 l/m2 in 1 Std. Regen
Ortszeit Stärke Spitze Richtung
km/h Bft. km/h Grad Sektor
Do, 02.02. 13:00 20 4 43 260° W
Do, 02.02. 7:00 22 4 47 260° W
Do, 02.02. 1:00 20 4 44 260° W
Mi, 01.02. 19:00 26 4 50 260° W
Mi, 01.02. 13:00 24 4 52 270° W
Mi, 01.02. 7:00 25 4 47 260° W
Mi, 01.02. 1:00 24 4 41 240° SW
Di, 31.01. 19:00 25 4 43 250° W
Ortszeit Stärke Spitze Richtung
km/h Bft. km/h Grad Sektor
Do, 02.02. 13:00 20 4 41 260° W
Do, 02.02. 12:40 18 3 - 270° W
Do, 02.02. 12:30 22 4 35 260° W
Do, 02.02. 12:20 22 4 - 260° W
Do, 02.02. 12:10 22 4 - 270° W
Do, 02.02. 12:00 22 4 43 270° W
Do, 02.02. 11:50 22 4 - 270° W
Do, 02.02. 11:30 22 4 43 260° W
Do, 02.02. 11:00 22 4 43 260° W
Do, 02.02. 10:30 22 4 43 260° W
Do, 02.02. 10:00 22 4 40 260° W
Ortszeit Untergrenze Bedeckung Gattung
total tief tief mittel hoch
Do, 02.02. 13:00 300 m 7/8 7/8 - - -
Do, 02.02. 7:00 210 m 8/8 8/8 - - -
Do, 02.02. 1:00 300 m 7/8 7/8 - - -
Mi, 01.02. 19:00 720 m 6/8 6/8 - - -
Mi, 01.02. 13:00 540 m 7/8 7/8 - - -
Mi, 01.02. 7:00 240 m 8/8 8/8 - - -
Mi, 01.02. 1:00 <30 m 8/8 0/8 - - -
Di, 31.01. 19:00 60 m 8/8 8/8 - - -
Ortszeit Bedeckungsgrad in Achtel und Wolkenuntergrenze
Do, 02.02. 13:00 6(300m) 7(900m)
Do, 02.02. 12:40 8
Do, 02.02. 12:30 7(300m)
Do, 02.02. 12:20 7(300m)
Do, 02.02. 12:10 7
Do, 02.02. 12:00 7(270m)
Do, 02.02. 11:50 7(270m)
Do, 02.02. 11:30 7(270m) 7(420m)
Do, 02.02. 11:00 7(210m)
Do, 02.02. 10:30 8(180m)
Do, 02.02. 10:00 7(180m)
Ortszeit Luftdruck NN (hPa) Tendenz (hPa in 3 Std.)
Do, 02.02. 13:00 1029 + 1,0
Do, 02.02. 7:00 1027 + 0,7
Do, 02.02. 1:00 1026 + 0,2
Mi, 01.02. 19:00 1025 + 0,5
Mi, 01.02. 13:00 1026 - 0,1
Mi, 01.02. 7:00 1024 0,0
Mi, 01.02. 1:00 1025 - 0,9
Di, 31.01. 19:00 1026 + 0,1
Ortszeit Luftdruck NN (hPa) Tendenz (hPa in 3 Std.)
Do, 02.02. 13:00 1029 + 1,0
Do, 02.02. 12:40 1029 keine Meldung
Do, 02.02. 12:30 1029 + 1,3
Do, 02.02. 12:20 1029 keine Meldung
Do, 02.02. 12:10 1029 keine Meldung
Do, 02.02. 12:00 1029 + 1,6
Do, 02.02. 11:50 1029 keine Meldung
Do, 02.02. 11:30 1029 + 1,6
Do, 02.02. 11:00 1028 + 1,2
Do, 02.02. 10:30 1028 + 0,5
Do, 02.02. 10:00 1028 + 1,2
Ortszeit Schneehöhe (cm)
Do, 02.02. 13:00 0
Do, 02.02. 7:00 0
Do, 02.02. 1:00 0
Mi, 01.02. 19:00 0
Mi, 01.02. 13:00 0
Mi, 01.02. 7:00 0
Mi, 01.02. 1:00 0
Di, 31.01. 19:00 0
Ortszeit Schneehöhe (cm)
Do, 02.02. 13:00 0
Do, 02.02. 12:40 0
Do, 02.02. 12:30 0
Do, 02.02. 12:20 0
Do, 02.02. 12:10 0
Do, 02.02. 12:00 0
Do, 02.02. 11:50 0
Do, 02.02. 11:30 0
Do, 02.02. 11:00 0
Do, 02.02. 10:30 0
Do, 02.02. 10:00 0
Link zu dieser Seite / Seite empfehlen

Das Wetter in ...